Time,TemperatureF,DewpointF,PressureIn,WindDirection,WindDirectionDegrees,WindSpeedMPH,WindSpeedGustMPH,Humidity,HourlyPrecipIn,Conditions,Clouds,dailyrainin,SoftwareType,DateUTC
2013-12-11 00:00:00,47.7,41.9,30.29,North,0,0.4,1.1,80,0.00,,,0.00,WUHU216HW,2013-12-11 05:00:00,
2013-12-11 00:05:00,47.7,41.9,30.29,North,0,0.2,0.9,80,0.00,,,0.00,WUHU216HW,2013-12-11 05:05:00,
2013-12-11 00:10:00,47.7,41.9,30.29,NNE,23,0.4,1.3,80,0.00,,,0.00,WUHU216HW,2013-12-11 05:10:00,
2013-12-11 00:15:00,47.5,41.7,30.29,NE,45,0.4,1.3,80,0.00,,,0.00,WUHU216HW,2013-12-11 05:15:00,
2013-12-11 00:20:00,47.5,41.7,30.29,NNE,23,0.7,0.9,80,0.00,,,0.00,WUHU216HW,2013-12-11 05:20:00,
2013-12-11 00:25:00,47.3,41.5,30.29,NNE,23,0.4,0.9,80,0.00,,,0.00,WUHU216HW,2013-12-11 05:25:00,
2013-12-11 00:30:00,47.3,41.5,30.29,NNE,23,1.1,1.3,80,0.00,,,0.00,WUHU216HW,2013-12-11 05:30:00,
2013-12-11 00:35:00,47.3,41.5,30.29,North,0,1.1,1.3,80,0.00,,,0.00,WUHU216HW,2013-12-11 05:35:00,
2013-12-11 00:40:00,47.2,41.3,30.29,North,0,0.7,1.8,80,0.00,,,0.00,WUHU216HW,2013-12-11 05:40:00,
2013-12-11 00:45:00,47.2,41.3,30.29,North,0,0.9,1.8,80,0.00,,,0.00,WUHU216HW,2013-12-11 05:45:00,
2013-12-11 00:50:00,46.8,40.7,30.29,North,0,1.1,1.8,79,0.00,,,0.00,WUHU216HW,2013-12-11 05:50:00,
2013-12-11 00:55:00,46.8,40.7,30.29,North,0,1.6,1.6,79,0.00,,,0.00,WUHU216HW,2013-12-11 05:55:00,
2013-12-11 01:00:00,46.6,40.5,30.29,North,0,1.3,1.6,79,0.00,,,0.00,WUHU216HW,2013-12-11 06:00:00,
2013-12-11 01:05:00,46.4,40.3,30.29,North,0,1.1,1.6,79,0.00,,,0.00,WUHU216HW,2013-12-11 06:05:00,
2013-12-11 01:10:00,46.4,40.3,30.29,North,0,1.1,1.6,79,0.00,,,0.00,WUHU216HW,2013-12-11 06:10:00,
2013-12-11 01:15:00,46.4,40.3,30.29,North,0,1.1,1.6,79,0.00,,,0.00,WUHU216HW,2013-12-11 06:15:00,
2013-12-11 01:20:00,46.3,40.1,30.29,North,0,0.4,1.3,79,0.00,,,0.00,WUHU216HW,2013-12-11 06:20:00,
2013-12-11 01:25:00,46.1,40.0,30.29,NNE,23,0.9,1.6,79,0.00,,,0.00,WUHU216HW,2013-12-11 06:25:00,
2013-12-11 01:30:00,46.1,40.0,30.29,North,0,0.2,1.6,79,0.00,,,0.00,WUHU216HW,2013-12-11 06:30:00,
2013-12-11 01:35:00,46.1,40.0,30.29,North,0,1.1,1.1,79,0.00,,,0.00,WUHU216HW,2013-12-11 06:35:00,
2013-12-11 01:40:00,46.1,40.0,30.29,North,0,0.4,1.6,79,0.00,,,0.00,WUHU216HW,2013-12-11 06:40:00,
2013-12-11 01:45:00,45.9,39.8,30.29,North,0,0.4,1.6,79,0.00,,,0.00,WUHU216HW,2013-12-11 06:45:00,
2013-12-11 01:50:00,45.7,39.6,30.29,NE,45,0.4,0.7,79,0.00,,,0.00,WUHU216HW,2013-12-11 06:50:00,
2013-12-11 01:55:00,45.7,39.6,30.29,North,0,1.8,1.8,79,0.00,,,0.00,WUHU216HW,2013-12-11 06:55:00,
2013-12-11 02:00:00,45.7,39.6,30.29,NNE,23,0.9,1.8,79,0.00,,,0.00,WUHU216HW,2013-12-11 07:00:00,
2013-12-11 02:05:00,45.7,39.6,30.29,NNE,23,1.1,1.1,79,0.00,,,0.00,WUHU216HW,2013-12-11 07:05:00,
2013-12-11 02:10:00,45.5,39.4,30.29,NNE,23,0.7,1.1,79,0.00,,,0.00,WUHU216HW,2013-12-11 07:10:00,
2013-12-11 02:15:00,45.5,39.4,30.29,NE,45,1.3,1.3,79,0.00,,,0.00,WUHU216HW,2013-12-11 07:15:00,
2013-12-11 02:20:00,45.4,39.2,30.29,NNE,23,0.4,1.8,79,0.00,,,0.00,WUHU216HW,2013-12-11 07:20:00,
2013-12-11 02:25:00,45.4,39.2,30.29,NNE,23,0.4,1.8,79,0.00,,,0.00,WUHU216HW,2013-12-11 07:25:00,
2013-12-11 02:30:00,45.2,39.1,30.29,NNE,23,0.7,1.1,79,0.00,,,0.00,WUHU216HW,2013-12-11 07:30:00,
2013-12-11 02:35:00,45.0,38.9,30.29,NNE,23,0.4,1.1,79,0.00,,,0.00,WUHU216HW,2013-12-11 07:35:00,
2013-12-11 02:40:00,45.0,38.9,30.29,North,0,0.4,1.1,79,0.00,,,0.00,WUHU216HW,2013-12-11 07:40:00,
2013-12-11 02:46:00,45.0,38.9,30.29,North,0,1.3,1.3,79,0.00,,,0.00,WUHU216HW,2013-12-11 07:46:00,
2013-12-11 02:51:00,45.0,38.9,30.29,North,0,1.1,1.3,79,0.00,,,0.00,WUHU216HW,2013-12-11 07:51:00,
2013-12-11 02:56:00,44.6,38.5,30.29,North,0,0.9,1.1,79,0.00,,,0.00,WUHU216HW,2013-12-11 07:56:00,
2013-12-11 03:01:00,44.6,38.5,30.30,NNE,23,0.7,1.1,79,0.00,,,0.00,WUHU216HW,2013-12-11 08:01:00,
2013-12-11 03:06:00,44.3,38.2,30.30,NNE,23,1.1,1.1,79,0.00,,,0.00,WUHU216HW,2013-12-11 08:06:00,
2013-12-11 03:11:00,44.3,38.2,30.29,North,0,1.3,1.3,79,0.00,,,0.00,WUHU216HW,2013-12-11 08:11:00,
2013-12-11 03:16:00,44.3,38.5,30.30,NNE,23,0.9,1.3,80,0.00,,,0.00,WUHU216HW,2013-12-11 08:16:00,
2013-12-11 03:21:00,44.3,38.5,30.30,NNE,23,0.4,1.1,80,0.00,,,0.00,WUHU216HW,2013-12-11 08:21:00,
2013-12-11 03:26:00,44.3,38.5,30.30,NNE,23,0.4,1.1,80,0.00,,,0.00,WUHU216HW,2013-12-11 08:26:00,
2013-12-11 03:31:00,44.3,38.5,30.30,NNE,23,0.7,0.9,80,0.00,,,0.00,WUHU216HW,2013-12-11 08:31:00,
2013-12-11 03:36:00,44.1,38.3,30.29,NNE,23,0.7,1.1,80,0.00,,,0.00,WUHU216HW,2013-12-11 08:36:00,
2013-12-11 03:41:00,43.9,38.2,30.29,NNE,23,0.4,1.6,80,0.00,,,0.00,WUHU216HW,2013-12-11 08:41:00,
2013-12-11 03:46:00,44.1,38.3,30.29,NNE,23,0.7,1.6,80,0.00,,,0.00,WUHU216HW,2013-12-11 08:46:00,
2013-12-11 03:51:00,44.1,38.6,30.30,NNE,23,1.1,1.1,81,0.00,,,0.00,WUHU216HW,2013-12-11 08:51:00,
2013-12-11 03:56:00,43.9,38.2,30.29,North,0,1.1,1.1,80,0.00,,,0.00,WUHU216HW,2013-12-11 08:56:00,
2013-12-11 04:01:00,43.7,38.3,30.29,NNE,23,0.4,1.8,81,0.00,,,0.00,WUHU216HW,2013-12-11 09:01:00,
2013-12-11 04:06:00,43.6,38.1,30.29,North,0,1.8,1.8,81,0.00,,,0.00,WUHU216HW,2013-12-11 09:06:00,
2013-12-11 04:11:00,43.6,38.1,30.29,NNE,23,0.9,1.8,81,0.00,,,0.00,WUHU216HW,2013-12-11 09:11:00,
2013-12-11 04:16:00,43.6,38.1,30.29,NNE,23,0.9,1.1,81,0.00,,,0.00,WUHU216HW,2013-12-11 09:16:00,
2013-12-11 04:21:00,43.6,38.1,30.29,NE,45,0.7,1.8,81,0.00,,,0.00,WUHU216HW,2013-12-11 09:21:00,
2013-12-11 04:26:00,43.6,38.1,30.29,NNE,23,1.1,1.8,81,0.00,,,0.00,WUHU216HW,2013-12-11 09:26:00,
2013-12-11 04:31:00,43.4,37.9,30.29,NNE,23,0.4,1.8,81,0.00,,,0.00,WUHU216HW,2013-12-11 09:31:00,
2013-12-11 04:36:00,43.2,37.7,30.29,North,0,0.4,1.8,81,0.00,,,0.00,WUHU216HW,2013-12-11 09:36:00,
2013-12-11 04:41:00,43.2,37.7,30.29,North,0,1.1,1.8,81,0.00,,,0.00,WUHU216HW,2013-12-11 09:41:00,
2013-12-11 04:46:00,43.2,37.7,30.29,NNE,23,0.7,1.3,81,0.00,,,0.00,WUHU216HW,2013-12-11 09:46:00,
2013-12-11 04:51:00,43.2,37.7,30.29,NNE,23,1.1,1.3,81,0.00,,,0.00,WUHU216HW,2013-12-11 09:51:00,
2013-12-11 04:56:00,43.0,37.5,30.29,North,0,1.1,1.3,81,0.00,,,0.00,WUHU216HW,2013-12-11 09:56:00,
2013-12-11 05:01:00,43.0,37.9,30.29,NNE,23,0.4,1.3,82,0.00,,,0.00,WUHU216HW,2013-12-11 10:01:00,
2013-12-11 05:06:00,42.8,37.7,30.29,NNE,23,1.1,1.1,82,0.00,,,0.00,WUHU216HW,2013-12-11 10:06:00,
2013-12-11 05:11:00,42.8,37.7,30.29,NNE,23,0.4,1.6,82,0.00,,,0.00,WUHU216HW,2013-12-11 10:11:00,
2013-12-11 05:16:00,42.8,37.7,30.29,NNE,23,0.7,1.6,82,0.00,,,0.00,WUHU216HW,2013-12-11 10:16:00,
2013-12-11 05:21:00,42.8,37.7,30.29,NNE,23,1.6,1.8,82,0.00,,,0.00,WUHU216HW,2013-12-11 10:21:00,
2013-12-11 05:26:00,42.8,38.0,30.29,NNE,23,0.7,1.8,83,0.00,,,0.00,WUHU216HW,2013-12-11 10:26:00,
2013-12-11 05:31:00,42.7,37.8,30.29,North,0,0.4,1.1,83,0.00,,,0.00,WUHU216HW,2013-12-11 10:31:00,
2013-12-11 05:36:00,42.7,37.8,30.29,NNE,23,1.1,1.8,83,0.00,,,0.00,WUHU216HW,2013-12-11 10:36:00,
2013-12-11 05:41:00,42.7,37.8,30.29,NNE,23,0.9,1.8,83,0.00,,,0.00,WUHU216HW,2013-12-11 10:41:00,
2013-12-11 05:46:00,42.7,37.8,30.30,NE,45,0.7,1.8,83,0.00,,,0.00,WUHU216HW,2013-12-11 10:46:00,
2013-12-11 05:51:00,42.7,37.8,30.30,NNE,23,0.4,1.8,83,0.00,,,0.00,WUHU216HW,2013-12-11 10:51:00,
2013-12-11 05:56:00,42.7,37.8,30.30,North,0,1.3,1.3,83,0.00,,,0.00,WUHU216HW,2013-12-11 10:56:00,
2013-12-11 06:01:00,42.5,38.0,30.30,North,0,0.4,1.3,84,0.00,,,0.00,WUHU216HW,2013-12-11 11:01:00,
2013-12-11 06:06:00,42.7,38.2,30.30,North,0,1.3,1.3,84,0.00,,,0.00,WUHU216HW,2013-12-11 11:06:00,
2013-12-11 06:11:00,42.5,38.0,30.30,North,0,1.3,1.8,84,0.00,,,0.00,WUHU216HW,2013-12-11 11:11:00,
2013-12-11 06:16:00,42.5,38.0,30.30,North,0,1.1,1.8,84,0.00,,,0.00,WUHU216HW,2013-12-11 11:16:00,
2013-12-11 06:21:00,42.5,38.0,30.30,North,0,0.2,1.6,84,0.00,,,0.00,WUHU216HW,2013-12-11 11:21:00,
2013-12-11 06:26:00,42.3,37.8,30.30,NNE,23,0.7,1.3,84,0.00,,,0.00,WUHU216HW,2013-12-11 11:26:00,
2013-12-11 06:31:00,42.3,38.1,30.31,North,0,1.8,1.8,85,0.00,,,0.00,WUHU216HW,2013-12-11 11:31:00,
2013-12-11 06:36:00,42.3,38.1,30.31,North,0,0.4,1.8,85,0.00,,,0.00,WUHU216HW,2013-12-11 11:36:00,
2013-12-11 06:41:00,42.5,38.3,30.31,North,0,0.9,1.8,85,0.00,,,0.00,WUHU216HW,2013-12-11 11:41:00,
2013-12-11 06:46:00,42.5,38.3,30.31,North,0,0.7,1.8,85,0.00,,,0.00,WUHU216HW,2013-12-11 11:46:00,
2013-12-11 06:51:00,42.5,38.3,30.31,NNE,23,0.7,1.1,85,0.00,,,0.00,WUHU216HW,2013-12-11 11:51:00,
2013-12-11 06:56:00,42.5,38.3,30.31,NNE,23,0.9,2.7,85,0.00,,,0.00,WUHU216HW,2013-12-11 11:56:00,
2013-12-11 07:01:00,42.5,38.3,30.31,North,0,0.4,2.7,85,0.00,,,0.00,WUHU216HW,2013-12-11 12:01:00,
2013-12-11 07:06:00,42.3,38.1,30.31,North,0,1.3,1.6,85,0.00,,,0.00,WUHU216HW,2013-12-11 12:06:00,
2013-12-11 07:11:00,42.3,38.1,30.32,NE,45,1.1,1.6,85,0.00,,,0.00,WUHU216HW,2013-12-11 12:11:00,
2013-12-11 07:16:00,42.5,38.3,30.32,NNE,23,0.9,1.6,85,0.00,,,0.00,WUHU216HW,2013-12-11 12:16:00,
2013-12-11 07:21:00,42.5,38.5,30.31,NNE,23,0.7,1.8,86,0.00,,,0.00,WUHU216HW,2013-12-11 12:21:00,
2013-12-11 07:26:00,42.5,38.5,30.31,NNE,23,1.6,1.8,86,0.00,,,0.00,WUHU216HW,2013-12-11 12:26:00,
2013-12-11 07:31:00,42.5,38.5,30.31,North,0,1.8,1.8,86,0.00,,,0.00,WUHU216HW,2013-12-11 12:31:00,
2013-12-11 07:36:00,42.5,38.5,30.32,North,0,2.2,2.2,86,0.00,,,0.00,WUHU216HW,2013-12-11 12:36:00,
2013-12-11 07:41:00,42.7,38.4,30.32,NNE,23,0.4,2.2,85,0.00,,,0.00,WUHU216HW,2013-12-11 12:41:00,
2013-12-11 07:46:00,42.8,38.6,30.32,North,0,1.1,2.0,85,0.00,,,0.00,WUHU216HW,2013-12-11 12:46:00,
2013-12-11 07:51:00,42.8,38.6,30.32,North,0,0.9,2.0,85,0.00,,,0.00,WUHU216HW,2013-12-11 12:51:00,
2013-12-11 07:56:00,43.0,39.1,30.33,North,0,1.6,1.6,86,0.00,,,0.00,WUHU216HW,2013-12-11 12:56:00,
2013-12-11 08:01:00,43.7,40.2,30.33,North,0,0.9,1.8,87,0.00,,,0.00,WUHU216HW,2013-12-11 13:01:00,
2013-12-11 08:06:00,44.1,40.1,30.33,NNE,23,1.1,1.8,86,0.00,,,0.00,WUHU216HW,2013-12-11 13:06:00,
2013-12-11 08:11:00,44.3,40.3,30.33,NNE,23,0.7,1.8,86,0.00,,,0.00,WUHU216HW,2013-12-11 13:11:00,
2013-12-11 08:16:00,45.0,41.0,30.34,NE,45,3.4,3.4,86,0.00,,,0.00,WUHU216HW,2013-12-11 13:16:00,
2013-12-11 08:21:00,45.7,41.8,30.34,NE,45,1.8,4.0,86,0.00,,,0.00,WUHU216HW,2013-12-11 13:21:00,
2013-12-11 08:26:00,46.1,41.9,30.34,NNE,23,0.7,4.0,85,0.00,,,0.00,WUHU216HW,2013-12-11 13:26:00,
2013-12-11 08:31:00,46.1,41.9,30.34,North,0,1.6,2.7,85,0.00,,,0.00,WUHU216HW,2013-12-11 13:31:00,
2013-12-11 08:36:00,46.1,41.9,30.34,North,0,1.8,2.2,85,0.00,,,0.00,WUHU216HW,2013-12-11 13:36:00,
2013-12-11 08:41:00,45.9,41.7,30.34,NNE,23,1.8,2.2,85,0.00,,,0.00,WUHU216HW,2013-12-11 13:41:00,
2013-12-11 08:46:00,46.1,41.9,30.34,NNE,23,2.5,5.6,85,0.00,,,0.00,WUHU216HW,2013-12-11 13:46:00,
2013-12-11 08:51:00,46.4,42.2,30.35,NNE,23,2.0,5.6,85,0.00,,,0.00,WUHU216HW,2013-12-11 13:51:00,
2013-12-11 08:56:00,46.8,42.8,30.35,NNE,23,1.8,3.6,86,0.00,,,0.00,WUHU216HW,2013-12-11 13:56:00,
2013-12-11 09:01:00,47.3,43.0,30.35,NNE,23,2.2,3.4,85,0.00,,,0.00,WUHU216HW,2013-12-11 14:01:00,
2013-12-11 09:06:00,47.7,43.4,30.35,ENE,68,2.7,3.4,85,0.00,,,0.00,WUHU216HW,2013-12-11 14:06:00,
2013-12-11 09:11:00,47.9,43.6,30.35,ENE,68,4.0,4.0,85,0.00,,,0.00,WUHU216HW,2013-12-11 14:11:00,
2013-12-11 09:16:00,48.1,43.7,30.36,NNE,23,2.2,4.0,85,0.00,,,0.00,WUHU216HW,2013-12-11 14:16:00,
2013-12-11 09:21:00,48.4,44.1,30.36,NE,45,1.8,2.7,85,0.00,,,0.00,WUHU216HW,2013-12-11 14:21:00,
2013-12-11 09:26:00,48.8,44.5,30.36,ENE,68,2.7,6.7,85,0.00,,,0.00,WUHU216HW,2013-12-11 14:26:00,
2013-12-11 09:31:00,49.3,44.9,30.37,NNE,23,1.1,6.7,85,0.00,,,0.00,WUHU216HW,2013-12-11 14:31:00,
2013-12-11 09:36:00,50.4,46.3,30.37,NE,45,2.5,3.4,86,0.00,,,0.00,WUHU216HW,2013-12-11 14:36:00,
2013-12-11 09:41:00,51.3,46.9,30.37,NNE,23,2.0,3.8,85,0.00,,,0.00,WUHU216HW,2013-12-11 14:41:00,
2013-12-11 09:46:00,52.2,47.5,30.37,NNE,23,2.0,3.8,84,0.00,,,0.00,WUHU216HW,2013-12-11 14:46:00,
2013-12-11 09:51:00,52.9,47.9,30.37,NNE,23,1.3,3.4,83,0.00,,,0.00,WUHU216HW,2013-12-11 14:51:00,
2013-12-11 09:56:00,53.1,48.1,30.37,NNE,23,3.4,3.4,83,0.00,,,0.00,WUHU216HW,2013-12-11 14:56:00,
2013-12-11 10:01:00,53.5,48.2,30.37,NE,45,2.5,3.4,82,0.00,,,0.00,WUHU216HW,2013-12-11 15:01:00,
2013-12-11 10:06:00,53.8,48.2,30.37,NE,45,2.2,3.4,81,0.00,,,0.00,WUHU216HW,2013-12-11 15:06:00,
2013-12-11 10:11:00,54.4,48.7,30.37,NNE,23,2.5,3.4,81,0.00,,,0.00,WUHU216HW,2013-12-11 15:11:00,
2013-12-11 10:16:00,55.4,49.3,30.37,ENE,68,2.5,3.4,80,0.00,,,0.00,WUHU216HW,2013-12-11 15:16:00,
2013-12-11 10:21:00,56.3,49.9,30.37,NE,45,2.2,3.4,79,0.00,,,0.00,WUHU216HW,2013-12-11 15:21:00,
2013-12-11 10:26:00,56.9,50.4,30.37,ENE,68,3.4,5.6,79,0.00,,,0.00,WUHU216HW,2013-12-11 15:26:00,
2013-12-11 10:31:00,57.2,50.8,30.37,NE,45,3.6,5.6,79,0.00,,,0.00,WUHU216HW,2013-12-11 15:31:00,
2013-12-11 10:36:00,58.9,50.9,30.37,NE,45,4.0,4.0,75,0.00,,,0.00,WUHU216HW,2013-12-11 15:36:00,
2013-12-11 10:41:00,58.9,50.6,30.36,NNE,23,3.4,4.7,74,0.00,,,0.00,WUHU216HW,2013-12-11 15:41:00,
2013-12-11 10:46:00,58.1,49.5,30.36,ENE,68,2.2,4.7,73,0.00,,,0.00,WUHU216HW,2013-12-11 15:46:00,
2013-12-11 10:51:00,58.0,50.4,30.37,NE,45,3.4,4.3,76,0.00,,,0.00,WUHU216HW,2013-12-11 15:51:00,
2013-12-11 10:56:00,58.7,50.8,30.36,ESE,113,3.4,4.3,75,0.00,,,0.00,WUHU216HW,2013-12-11 15:56:00,
2013-12-11 11:01:00,59.4,51.1,30.36,NE,45,4.7,4.7,74,0.00,,,0.00,WUHU216HW,2013-12-11 16:01:00,
2013-12-11 11:06:00,60.1,51.8,30.36,NE,45,2.2,4.7,74,0.00,,,0.00,WUHU216HW,2013-12-11 16:06:00,
2013-12-11 11:11:00,60.1,50.8,30.36,ENE,68,3.4,4.3,71,0.00,,,0.00,WUHU216HW,2013-12-11 16:11:00,
2013-12-11 11:16:00,60.5,51.8,30.36,NE,45,4.0,4.3,73,0.00,,,0.00,WUHU216HW,2013-12-11 16:16:00,
2013-12-11 11:21:00,60.5,50.8,30.36,ENE,68,3.8,4.3,70,0.00,,,0.00,WUHU216HW,2013-12-11 16:21:00,
2013-12-11 11:26:00,60.7,52.0,30.36,NE,45,4.0,4.0,73,0.00,,,0.00,WUHU216HW,2013-12-11 16:26:00,
2013-12-11 11:31:00,61.0,51.7,30.35,NNW,338,1.8,4.9,71,0.00,,,0.00,WUHU216HW,2013-12-11 16:31:00,
2013-12-11 11:36:00,61.6,52.5,30.35,NE,45,3.8,4.9,72,0.00,,,0.00,WUHU216HW,2013-12-11 16:36:00,
2013-12-11 11:41:00,62.3,52.7,30.35,NNE,23,2.9,4.7,71,0.00,,,0.00,WUHU216HW,2013-12-11 16:41:00,
2013-12-11 11:46:00,62.3,52.4,30.34,ENE,68,2.5,4.7,70,0.00,,,0.00,WUHU216HW,2013-12-11 16:46:00,
2013-12-11 11:51:00,61.9,52.1,30.34,ENE,68,3.1,4.0,70,0.00,,,0.00,WUHU216HW,2013-12-11 16:51:00,
2013-12-11 11:56:00,61.9,51.7,30.34,NE,45,5.4,6.5,69,0.00,,,0.00,WUHU216HW,2013-12-11 16:56:00,
2013-12-11 12:01:00,61.7,51.5,30.34,ENE,68,2.2,6.5,69,0.00,,,0.00,WUHU216HW,2013-12-11 17:01:00,
2013-12-11 12:06:00,61.9,52.5,30.34,NNE,23,2.5,4.9,71,0.00,,,0.00,WUHU216HW,2013-12-11 17:06:00,
2013-12-11 12:11:00,62.5,52.9,30.33,East,90,4.0,4.0,71,0.00,,,0.00,WUHU216HW,2013-12-11 17:11:00,
2013-12-11 12:16:00,63.0,53.5,30.33,NNE,23,1.8,4.0,71,0.00,,,0.00,WUHU216HW,2013-12-11 17:16:00,
2013-12-11 12:21:00,63.0,52.3,30.33,ENE,68,3.6,3.6,68,0.00,,,0.00,WUHU216HW,2013-12-11 17:21:00,
2013-12-11 12:26:00,62.3,52.4,30.33,NE,45,3.4,3.6,70,0.00,,,0.00,WUHU216HW,2013-12-11 17:26:00,
2013-12-11 12:31:00,62.1,52.3,30.32,NE,45,2.2,5.4,70,0.00,,,0.00,WUHU216HW,2013-12-11 17:31:00,
2013-12-11 12:36:00,62.3,52.7,30.32,North,0,2.5,5.4,71,0.00,,,0.00,WUHU216HW,2013-12-11 17:36:00,
2013-12-11 12:41:00,62.5,52.9,30.31,ENE,68,3.6,4.5,71,0.00,,,0.00,WUHU216HW,2013-12-11 17:41:00,
2013-12-11 12:46:00,62.6,53.1,30.31,ENE,68,3.4,3.6,71,0.00,,,0.00,WUHU216HW,2013-12-11 17:46:00,
2013-12-11 12:51:00,63.0,53.1,30.31,North,0,2.5,4.0,70,0.00,,,0.00,WUHU216HW,2013-12-11 17:51:00,
2013-12-11 12:56:00,63.2,53.3,30.31,NE,45,3.8,4.0,70,0.00,,,0.00,WUHU216HW,2013-12-11 17:56:00,
2013-12-11 13:01:00,63.0,53.1,30.31,NE,45,1.8,3.8,70,0.00,,,0.00,WUHU216HW,2013-12-11 18:01:00,
2013-12-11 13:06:00,62.6,52.7,30.31,NE,45,1.6,3.4,70,0.00,,,0.00,WUHU216HW,2013-12-11 18:06:00,
2013-12-11 13:11:00,62.6,53.1,30.30,NNE,23,3.1,4.0,71,0.00,,,0.00,WUHU216HW,2013-12-11 18:11:00,
2013-12-11 13:16:00,63.0,53.5,30.30,ENE,68,0.4,5.1,71,0.00,,,0.00,WUHU216HW,2013-12-11 18:16:00,
2013-12-11 13:21:00,63.2,53.6,30.30,ESE,113,1.3,5.1,71,0.00,,,0.00,WUHU216HW,2013-12-11 18:21:00,
2013-12-11 13:26:00,63.2,53.6,30.30,ENE,68,1.1,4.0,71,0.00,,,0.00,WUHU216HW,2013-12-11 18:26:00,
2013-12-11 13:31:00,63.0,53.5,30.29,NE,45,2.7,4.0,71,0.00,,,0.00,WUHU216HW,2013-12-11 18:31:00,
2013-12-11 13:36:00,63.0,53.5,30.29,NE,45,4.0,4.0,71,0.00,,,0.00,WUHU216HW,2013-12-11 18:36:00,
2013-12-11 13:41:00,63.0,53.5,30.29,NNE,23,3.4,4.5,71,0.00,,,0.00,WUHU216HW,2013-12-11 18:41:00,
2013-12-11 13:46:00,63.0,53.5,30.28,SSE,158,4.3,4.5,71,0.00,,,0.00,WUHU216HW,2013-12-11 18:46:00,
2013-12-11 13:51:00,63.0,53.5,30.28,SSE,158,0.9,4.3,71,0.00,,,0.00,WUHU216HW,2013-12-11 18:51:00,
2013-12-11 13:56:00,62.8,53.3,30.28,NE,45,2.7,3.4,71,0.00,,,0.00,WUHU216HW,2013-12-11 18:56:00,
2013-12-11 14:01:00,62.8,53.3,30.28,SE,135,5.1,5.1,71,0.00,,,0.00,WUHU216HW,2013-12-11 19:01:00,
2013-12-11 14:06:00,63.0,53.8,30.28,NNE,23,1.6,5.1,72,0.00,,,0.00,WUHU216HW,2013-12-11 19:06:00,
2013-12-11 14:11:00,63.2,53.6,30.28,SE,135,5.4,5.4,71,0.00,,,0.00,WUHU216HW,2013-12-11 19:11:00,
2013-12-11 14:16:00,63.4,53.8,30.28,NNE,23,3.8,5.4,71,0.00,,,0.00,WUHU216HW,2013-12-11 19:16:00,
2013-12-11 14:21:00,63.4,53.8,30.28,ESE,113,3.4,5.4,71,0.00,,,0.00,WUHU216HW,2013-12-11 19:21:00,
2013-12-11 14:26:00,63.2,53.3,30.28,NNE,23,3.8,5.4,70,0.00,,,0.00,WUHU216HW,2013-12-11 19:26:00,
2013-12-11 14:31:00,63.0,53.5,30.28,ENE,68,2.2,4.0,71,0.00,,,0.00,WUHU216HW,2013-12-11 19:31:00,
2013-12-11 14:36:00,63.0,53.5,30.28,South,180,1.1,3.8,71,0.00,,,0.00,WUHU216HW,2013-12-11 19:36:00,
2013-12-11 14:41:00,63.0,53.5,30.28,NE,45,2.2,2.7,71,0.00,,,0.00,WUHU216HW,2013-12-11 19:41:00,
2013-12-11 14:46:00,63.2,53.6,30.28,NNE,23,2.2,2.7,71,0.00,,,0.00,WUHU216HW,2013-12-11 19:46:00,
2013-12-11 14:51:00,63.0,53.5,30.29,ENE,68,1.8,2.5,71,0.00,,,0.00,WUHU216HW,2013-12-11 19:51:00,
2013-12-11 14:56:00,62.6,52.7,30.28,ENE,68,2.5,3.4,70,0.00,,,0.00,WUHU216HW,2013-12-11 19:56:00,
2013-12-11 15:01:00,62.5,53.3,30.28,NE,45,2.5,3.4,72,0.00,,,0.00,WUHU216HW,2013-12-11 20:01:00,
2013-12-11 15:06:00,62.6,53.5,30.28,NE,45,3.1,3.1,72,0.00,,,0.00,WUHU216HW,2013-12-11 20:06:00,
2013-12-11 15:11:00,62.8,53.6,30.28,NE,45,2.9,3.1,72,0.00,,,0.00,WUHU216HW,2013-12-11 20:11:00,
2013-12-11 15:16:00,62.6,53.1,30.28,ENE,68,2.5,3.1,71,0.00,,,0.00,WUHU216HW,2013-12-11 20:16:00,
2013-12-11 15:21:00,62.3,52.7,30.28,NE,45,1.1,3.8,71,0.00,,,0.00,WUHU216HW,2013-12-11 20:21:00,
2013-12-11 15:26:00,62.3,52.7,30.28,NNE,23,1.8,3.8,71,0.00,,,0.00,WUHU216HW,2013-12-11 20:26:00,
2013-12-11 15:31:00,62.1,52.7,30.29,North,0,1.3,2.7,71,0.00,,,0.00,WUHU216HW,2013-12-11 20:31:00,
2013-12-11 15:36:00,61.9,52.5,30.28,NE,45,2.5,2.7,71,0.00,,,0.00,WUHU216HW,2013-12-11 20:36:00,
2013-12-11 15:41:00,61.9,52.5,30.28,NE,45,2.0,2.7,71,0.00,,,0.00,WUHU216HW,2013-12-11 20:41:00,
2013-12-11 15:46:00,61.6,51.8,30.28,NE,45,1.1,3.4,70,0.00,,,0.00,WUHU216HW,2013-12-11 20:46:00,
2013-12-11 15:51:00,61.6,51.8,30.28,ENE,68,2.0,3.4,70,0.00,,,0.00,WUHU216HW,2013-12-11 20:51:00,
2013-12-11 15:56:00,61.4,51.6,30.28,East,90,1.1,2.5,70,0.00,,,0.00,WUHU216HW,2013-12-11 20:56:00,
2013-12-11 16:01:00,61.4,51.9,30.29,ENE,68,1.3,2.5,71,0.00,,,0.00,WUHU216HW,2013-12-11 21:01:00,
2013-12-11 16:06:00,61.4,51.6,30.29,NE,45,1.6,2.0,70,0.00,,,0.00,WUHU216HW,2013-12-11 21:06:00,
2013-12-11 16:11:00,61.2,51.9,30.29,NE,45,1.6,1.8,71,0.00,,,0.00,WUHU216HW,2013-12-11 21:11:00,
2013-12-11 16:16:00,61.2,51.9,30.29,ENE,68,1.8,2.5,71,0.00,,,0.00,WUHU216HW,2013-12-11 21:16:00,
2013-12-11 16:21:00,60.8,51.5,30.29,ENE,68,1.1,2.5,71,0.00,,,0.00,WUHU216HW,2013-12-11 21:21:00,
2013-12-11 16:26:00,60.8,51.5,30.28,NE,45,0.7,2.5,71,0.00,,,0.00,WUHU216HW,2013-12-11 21:26:00,
2013-12-11 16:31:00,60.8,51.5,30.29,NE,45,2.7,2.7,71,0.00,,,0.00,WUHU216HW,2013-12-11 21:31:00,
2013-12-11 16:36:00,60.8,51.5,30.29,NE,45,1.1,2.7,71,0.00,,,0.00,WUHU216HW,2013-12-11 21:36:00,
2013-12-11 16:41:00,60.8,51.8,30.29,NE,45,1.1,1.8,72,0.00,,,0.00,WUHU216HW,2013-12-11 21:41:00,
2013-12-11 16:46:00,60.7,51.3,30.29,ENE,68,2.0,2.0,71,0.00,,,0.00,WUHU216HW,2013-12-11 21:46:00,
2013-12-11 16:51:00,60.5,51.1,30.29,NE,45,0.4,2.0,71,0.00,,,0.00,WUHU216HW,2013-12-11 21:51:00,
2013-12-11 16:56:00,60.5,51.5,30.29,NE,45,1.8,1.8,72,0.00,,,0.00,WUHU216HW,2013-12-11 21:56:00,
2013-12-11 17:01:00,60.3,51.3,30.29,NE,45,1.1,1.8,72,0.00,,,0.00,WUHU216HW,2013-12-11 22:01:00,
2013-12-11 17:06:00,60.3,51.3,30.29,NE,45,1.8,2.2,72,0.00,,,0.00,WUHU216HW,2013-12-11 22:06:00,
2013-12-11 17:11:00,60.1,51.1,30.29,NE,45,1.1,2.5,72,0.00,,,0.00,WUHU216HW,2013-12-11 22:11:00,
2013-12-11 17:16:00,59.9,50.9,30.29,NE,45,1.3,2.5,72,0.00,,,0.00,WUHU216HW,2013-12-11 22:16:00,
2013-12-11 17:21:00,59.9,50.9,30.30,NE,45,1.1,2.0,72,0.00,,,0.00,WUHU216HW,2013-12-11 22:21:00,
2013-12-11 17:26:00,59.8,51.1,30.30,ENE,68,1.8,2.0,73,0.00,,,0.00,WUHU216HW,2013-12-11 22:26:00,
2013-12-11 17:31:00,59.8,51.1,30.30,NE,45,0.9,1.8,73,0.00,,,0.00,WUHU216HW,2013-12-11 22:31:00,
2013-12-11 17:36:00,59.6,50.9,30.30,ENE,68,1.8,1.8,73,0.00,,,0.00,WUHU216HW,2013-12-11 22:36:00,
2013-12-11 17:41:00,59.4,50.8,30.30,NE,45,1.1,2.5,73,0.00,,,0.00,WUHU216HW,2013-12-11 22:41:00,
2013-12-11 17:46:00,59.4,50.8,30.30,NNE,23,0.4,2.5,73,0.00,,,0.00,WUHU216HW,2013-12-11 22:46:00,
2013-12-11 17:51:00,59.2,50.6,30.31,NE,45,1.6,2.2,73,0.00,,,0.00,WUHU216HW,2013-12-11 22:51:00,
2013-12-11 17:56:00,59.2,50.6,30.31,NE,45,1.1,2.2,73,0.00,,,0.00,WUHU216HW,2013-12-11 22:56:00,
2013-12-11 18:01:00,59.0,50.8,30.31,NNE,23,1.6,1.8,74,0.00,,,0.00,WUHU216HW,2013-12-11 23:01:00,
2013-12-11 18:06:00,58.9,50.6,30.31,NNE,23,0.9,1.8,74,0.00,,,0.00,WUHU216HW,2013-12-11 23:06:00,
2013-12-11 18:11:00,58.9,50.6,30.31,NNE,23,0.9,1.1,74,0.00,,,0.00,WUHU216HW,2013-12-11 23:11:00,
2013-12-11 18:16:00,58.9,50.6,30.31,NNE,23,0.0,1.1,74,0.00,,,0.00,WUHU216HW,2013-12-11 23:16:00,
2013-12-11 18:21:00,58.7,50.4,30.31,NNE,23,0.0,0.0,74,0.00,,,0.00,WUHU216HW,2013-12-11 23:21:00,
2013-12-11 18:26:00,58.7,50.4,30.31,NE,45,0.0,0.2,74,0.00,,,0.00,WUHU216HW,2013-12-11 23:26:00,
2013-12-11 18:31:00,58.5,50.2,30.31,NE,45,0.4,1.1,74,0.00,,,0.00,WUHU216HW,2013-12-11 23:31:00,
2013-12-11 18:36:00,58.5,50.6,30.31,NE,45,0.4,1.1,75,0.00,,,0.00,WUHU216HW,2013-12-11 23:36:00,
2013-12-11 18:41:00,58.5,50.6,30.31,NNE,23,1.1,1.1,75,0.00,,,0.00,WUHU216HW,2013-12-11 23:41:00,
2013-12-11 18:46:00,58.3,50.4,30.31,NNE,23,0.4,1.1,75,0.00,,,0.00,WUHU216HW,2013-12-11 23:46:00,
2013-12-11 18:51:00,58.3,50.4,30.31,NNE,23,0.0,0.7,75,0.00,,,0.00,WUHU216HW,2013-12-11 23:51:00,
2013-12-11 18:56:00,58.3,50.4,30.31,NNE,23,0.0,0.0,75,0.00,,,0.00,WUHU216HW,2013-12-11 23:56:00,
2013-12-11 19:01:00,58.3,50.4,30.31,NNE,23,0.0,0.0,75,0.00,,,0.00,WUHU216HW,2013-12-12 00:01:00,
2013-12-11 19:06:00,58.3,50.4,30.31,NNE,23,0.0,0.0,75,0.00,,,0.00,WUHU216HW,2013-12-12 00:06:00,
2013-12-11 19:11:00,58.3,50.8,30.31,NNE,23,0.0,0.0,76,0.00,,,0.00,WUHU216HW,2013-12-12 00:11:00,
2013-12-11 19:16:00,58.1,50.6,30.31,NNE,23,0.0,0.0,76,0.00,,,0.00,WUHU216HW,2013-12-12 00:16:00,
2013-12-11 19:22:00,58.1,50.6,30.31,NNE,23,0.4,0.4,76,0.00,,,0.00,WUHU216HW,2013-12-12 00:22:00,
2013-12-11 19:27:00,58.0,50.4,30.31,NNE,23,0.7,0.7,76,0.00,,,0.00,WUHU216HW,2013-12-12 00:27:00,
2013-12-11 19:32:00,58.0,50.4,30.31,NNE,23,0.0,1.1,76,0.00,,,0.00,WUHU216HW,2013-12-12 00:32:00,
2013-12-11 19:37:00,58.0,50.4,30.31,NNE,23,1.1,1.1,76,0.00,,,0.00,WUHU216HW,2013-12-12 00:37:00,
2013-12-11 19:42:00,58.0,50.4,30.31,NNE,23,0.7,1.1,76,0.00,,,0.00,WUHU216HW,2013-12-12 00:42:00,
2013-12-11 19:47:00,58.0,50.8,30.31,NNE,23,0.4,1.3,77,0.00,,,0.00,WUHU216HW,2013-12-12 00:47:00,
2013-12-11 19:52:00,57.8,50.6,30.31,NE,45,0.9,1.3,77,0.00,,,0.00,WUHU216HW,2013-12-12 00:52:00,
2013-12-11 19:57:00,57.8,50.6,30.31,North,0,1.1,1.8,77,0.00,,,0.00,WUHU216HW,2013-12-12 00:57:00,
2013-12-11 20:02:00,57.6,50.4,30.31,NE,45,1.1,1.8,77,0.00,,,0.00,WUHU216HW,2013-12-12 01:02:00,
2013-12-11 20:07:00,57.6,50.4,30.31,NNE,23,0.7,1.8,77,0.00,,,0.00,WUHU216HW,2013-12-12 01:07:00,
2013-12-11 20:12:00,57.4,50.2,30.31,NNE,23,0.9,1.8,77,0.00,,,0.00,WUHU216HW,2013-12-12 01:12:00,
2013-12-11 20:17:00,57.4,50.2,30.31,NNE,23,1.1,1.8,77,0.00,,,0.00,WUHU216HW,2013-12-12 01:17:00,
2013-12-11 20:22:00,57.4,50.2,30.31,NE,45,0.4,1.3,77,0.00,,,0.00,WUHU216HW,2013-12-12 01:22:00,
2013-12-11 20:27:00,57.2,50.0,30.31,North,0,0.9,1.6,77,0.00,,,0.00,WUHU216HW,2013-12-12 01:27:00,
2013-12-11 20:32:00,57.2,50.0,30.31,North,0,0.9,3.1,77,0.00,,,0.00,WUHU216HW,2013-12-12 01:32:00,
2013-12-11 20:37:00,57.1,49.5,30.31,North,0,1.6,3.1,76,0.00,,,0.00,WUHU216HW,2013-12-12 01:37:00,
2013-12-11 20:42:00,56.9,49.3,30.31,NE,45,1.6,1.8,76,0.00,,,0.00,WUHU216HW,2013-12-12 01:42:00,
2013-12-11 20:47:00,56.9,49.3,30.31,NNE,23,1.1,2.0,76,0.00,,,0.00,WUHU216HW,2013-12-12 01:47:00,
2013-12-11 20:52:00,56.7,49.1,30.31,NNE,23,1.3,2.0,76,0.00,,,0.00,WUHU216HW,2013-12-12 01:52:00,
2013-12-11 20:57:00,56.5,48.6,30.31,NNE,23,1.6,1.8,75,0.00,,,0.00,WUHU216HW,2013-12-12 01:57:00,
2013-12-11 21:02:00,56.5,48.6,30.31,NNE,23,0.2,1.8,75,0.00,,,0.00,WUHU216HW,2013-12-12 02:02:00,
2013-12-11 21:07:00,56.5,48.6,30.31,NE,45,1.8,1.8,75,0.00,,,0.00,WUHU216HW,2013-12-12 02:07:00,
2013-12-11 21:12:00,56.3,48.2,30.31,NE,45,1.8,2.2,74,0.00,,,0.00,WUHU216HW,2013-12-12 02:12:00,
2013-12-11 21:17:00,56.2,48.0,30.31,NE,45,1.8,2.7,74,0.00,,,0.00,WUHU216HW,2013-12-12 02:17:00,
2013-12-11 21:22:00,56.2,48.0,30.32,North,0,0.4,2.7,74,0.00,,,0.00,WUHU216HW,2013-12-12 02:22:00,
2013-12-11 21:27:00,56.0,47.8,30.32,NE,45,0.7,1.1,74,0.00,,,0.00,WUHU216HW,2013-12-12 02:27:00,
2013-12-11 21:32:00,56.0,47.8,30.32,NNE,23,0.7,2.5,74,0.00,,,0.00,WUHU216HW,2013-12-12 02:32:00,
2013-12-11 21:37:00,55.8,47.6,30.32,North,0,1.1,2.5,74,0.00,,,0.00,WUHU216HW,2013-12-12 02:37:00,
2013-12-11 21:42:00,55.8,47.6,30.32,North,0,0.9,1.6,74,0.00,,,0.00,WUHU216HW,2013-12-12 02:42:00,
2013-12-11 21:47:00,55.6,47.4,30.32,North,0,0.0,1.1,74,0.00,,,0.00,WUHU216HW,2013-12-12 02:47:00,
2013-12-11 21:52:00,55.4,47.3,30.32,North,0,0.0,0.7,74,0.00,,,0.00,WUHU216HW,2013-12-12 02:52:00,
2013-12-11 21:57:00,55.4,47.3,30.32,North,0,0.4,0.4,74,0.00,,,0.00,WUHU216HW,2013-12-12 02:57:00,
2013-12-11 22:02:00,55.3,47.1,30.32,North,0,0.7,1.1,74,0.00,,,0.00,WUHU216HW,2013-12-12 03:02:00,
2013-12-11 22:07:00,55.1,47.3,30.32,North,0,0.0,1.1,75,0.00,,,0.00,WUHU216HW,2013-12-12 03:07:00,
2013-12-11 22:12:00,55.1,47.3,30.32,North,0,0.0,0.0,75,0.00,,,0.00,WUHU216HW,2013-12-12 03:12:00,
2013-12-11 22:17:00,54.9,47.1,30.32,North,0,1.1,1.1,75,0.00,,,0.00,WUHU216HW,2013-12-12 03:17:00,
2013-12-11 22:22:00,54.7,46.9,30.32,North,0,1.1,1.1,75,0.00,,,0.00,WUHU216HW,2013-12-12 03:22:00,
2013-12-11 22:27:00,54.5,46.8,30.32,North,0,1.1,1.3,75,0.00,,,0.00,WUHU216HW,2013-12-12 03:27:00,
2013-12-11 22:32:00,54.2,46.5,30.31,North,0,0.0,1.3,75,0.00,,,0.00,WUHU216HW,2013-12-12 03:32:00,
2013-12-11 22:37:00,54.0,46.3,30.32,NNW,338,0.0,1.1,75,0.00,,,0.00,WUHU216HW,2013-12-12 03:37:00,
2013-12-11 22:42:00,54.0,46.3,30.31,NNW,338,0.0,0.0,75,0.00,,,0.00,WUHU216HW,2013-12-12 03:42:00,
2013-12-11 22:47:00,53.8,46.1,30.32,NNW,338,0.0,0.0,75,0.00,,,0.00,WUHU216HW,2013-12-12 03:47:00,
2013-12-11 22:52:00,53.6,45.9,30.31,NNW,338,0.0,0.0,75,0.00,,,0.00,WUHU216HW,2013-12-12 03:52:00,
2013-12-11 22:57:00,53.3,45.9,30.32,NNW,338,0.0,0.0,76,0.00,,,0.00,WUHU216HW,2013-12-12 03:57:00,
2013-12-11 23:02:00,53.1,45.7,30.31,NNW,338,0.0,0.0,76,0.00,,,0.00,WUHU216HW,2013-12-12 04:02:00,
2013-12-11 23:07:00,52.9,45.9,30.31,NNW,338,1.1,1.1,77,0.00,,,0.00,WUHU216HW,2013-12-12 04:07:00,
2013-12-11 23:12:00,52.9,45.9,30.32,NNW,338,0.0,1.1,77,0.00,,,0.00,WUHU216HW,2013-12-12 04:12:00,
2013-12-11 23:17:00,52.9,45.9,30.32,NNW,338,0.0,0.7,77,0.00,,,0.00,WUHU216HW,2013-12-12 04:17:00,
2013-12-11 23:22:00,52.9,46.3,30.31,NNW,338,0.0,0.0,78,0.00,,,0.00,WUHU216HW,2013-12-12 04:22:00,
2013-12-11 23:27:00,52.9,46.3,30.31,NNW,338,0.0,0.0,78,0.00,,,0.00,WUHU216HW,2013-12-12 04:27:00,
2013-12-11 23:32:00,52.7,46.1,30.31,NNW,338,0.0,0.0,78,0.00,,,0.00,WUHU216HW,2013-12-12 04:32:00,
2013-12-11 23:37:00,52.6,45.9,30.31,NNW,338,0.0,0.0,78,0.00,,,0.00,WUHU216HW,2013-12-12 04:37:00,
2013-12-11 23:42:00,52.4,45.7,30.31,NNW,338,0.4,0.4,78,0.00,,,0.00,WUHU216HW,2013-12-12 04:42:00,
2013-12-11 23:47:00,52.2,45.5,30.31,NNW,338,0.4,1.1,78,0.00,,,0.00,WUHU216HW,2013-12-12 04:47:00,
2013-12-11 23:52:00,52.2,45.5,30.31,NNW,338,0.9,1.1,78,0.00,,,0.00,WUHU216HW,2013-12-12 04:52:00,
2013-12-11 23:57:00,52.0,45.4,30.31,NNW,338,0.0,0.9,78,0.00,,,0.00,WUHU216HW,2013-12-12 04:57:00,